createdAt,value
2018-11-29T00:00:23.414Z,35.37
2018-11-29T00:02:51.809Z,35.43
2018-11-29T00:05:19.981Z,33.47
2018-11-29T00:07:48.165Z,40.30
2018-11-29T00:10:16.355Z,34.77
2018-11-29T00:12:44.517Z,41.03
2018-11-29T00:15:14.554Z,40.90
2018-11-29T00:17:42.729Z,33.23
2018-11-29T00:20:13.968Z,37.63
2018-11-29T00:22:42.964Z,35.03
2018-11-29T00:25:12.057Z,35.43
2018-11-29T00:27:40.274Z,33.67
2018-11-29T00:30:11.506Z,34.00
2018-11-29T00:32:39.695Z,34.90
2018-11-29T00:35:09.969Z,38.10
2018-11-29T00:37:38.152Z,38.30
2018-11-29T00:40:09.282Z,35.40
2018-11-29T00:42:37.443Z,33.23
2018-11-29T00:45:08.708Z,34.43
2018-11-29T00:47:36.881Z,31.63
2018-11-29T00:50:07.114Z,33.47
2018-11-29T00:52:35.272Z,34.00
2018-11-29T00:55:03.458Z,32.13
2018-11-29T00:57:31.625Z,36.57
2018-11-29T00:59:59.796Z,36.13
2018-11-29T01:02:27.966Z,31.93
2018-11-29T01:04:56.159Z,31.80
2018-11-29T01:07:24.371Z,35.83
2018-11-29T01:09:52.546Z,33.03
2018-11-29T01:12:21.273Z,38.57
2018-11-29T01:14:49.444Z,36.43
2018-11-29T01:17:17.612Z,36.13
2018-11-29T01:19:45.809Z,36.13
2018-11-29T01:22:13.992Z,38.53
2018-11-29T01:24:42.160Z,34.23
2018-11-29T01:27:10.340Z,35.77
2018-11-29T01:29:38.506Z,39.40
2018-11-29T01:32:06.680Z,31.47
2018-11-29T01:34:34.876Z,36.57
2018-11-29T01:37:03.049Z,37.43
2018-11-29T01:39:31.231Z,36.57
2018-11-29T01:41:59.446Z,33.03
2018-11-29T01:44:27.629Z,30.67
2018-11-29T01:46:55.804Z,35.00
2018-11-29T01:49:23.973Z,30.13
2018-11-29T01:51:52.146Z,33.27
2018-11-29T01:54:20.310Z,35.13
2018-11-29T01:56:48.484Z,37.07
2018-11-29T01:59:16.656Z,35.33
2018-11-29T02:01:44.829Z,32.57
2018-11-29T02:04:13.016Z,33.27
2018-11-29T02:06:41.203Z,34.13
2018-11-29T02:09:09.400Z,35.43
2018-11-29T02:11:37.570Z,32.87
2018-11-29T02:14:06.157Z,34.07
2018-11-29T02:16:34.330Z,36.23
2018-11-29T02:19:02.539Z,30.50
2018-11-29T02:21:31.245Z,36.13
2018-11-29T02:23:59.429Z,38.03
2018-11-29T02:26:27.597Z,34.10
2018-11-29T02:28:55.765Z,29.87
2018-11-29T02:31:23.943Z,31.93
2018-11-29T02:33:52.101Z,33.20
2018-11-29T02:36:20.286Z,34.10
2018-11-29T02:38:48.450Z,32.47
2018-11-29T02:41:16.621Z,32.07
2018-11-29T02:43:44.789Z,35.70
2018-11-29T02:46:12.959Z,32.53
2018-11-29T02:48:41.125Z,31.10
2018-11-29T02:51:09.285Z,33.03
2018-11-29T02:53:37.460Z,31.40
2018-11-29T02:56:05.675Z,34.97
2018-11-29T02:58:33.891Z,33.53
2018-11-29T03:01:02.074Z,34.93
2018-11-29T03:03:30.265Z,32.43
2018-11-29T03:05:58.442Z,31.43
2018-11-29T03:08:26.632Z,33.00
2018-11-29T03:10:54.800Z,30.00
2018-11-29T03:13:22.973Z,31.87
2018-11-29T03:15:51.150Z,33.63
2018-11-29T03:18:19.335Z,32.07
2018-11-29T03:20:47.529Z,33.67
2018-11-29T03:23:15.681Z,33.40
2018-11-29T03:25:43.861Z,34.07
2018-11-29T03:28:12.032Z,36.60
2018-11-29T03:30:40.208Z,33.03
2018-11-29T03:33:08.395Z,31.27
2018-11-29T03:35:36.590Z,31.20
2018-11-29T03:38:04.805Z,30.73
2018-11-29T03:40:32.985Z,32.50
2018-11-29T03:43:01.152Z,32.90
2018-11-29T03:45:29.685Z,31.50
2018-11-29T03:47:57.853Z,34.33
2018-11-29T03:50:26.026Z,32.47
2018-11-29T03:52:54.198Z,29.83
2018-11-29T03:55:22.362Z,37.90
2018-11-29T03:57:50.619Z,31.70
2018-11-29T04:00:18.781Z,34.57
2018-11-29T04:02:48.152Z,34.03
2018-11-29T04:05:16.393Z,33.20
2018-11-29T04:07:44.592Z,34.70
2018-11-29T04:10:14.841Z,34.73
2018-11-29T04:12:43.067Z,33.20
2018-11-29T04:15:12.401Z,34.00
2018-11-29T04:17:41.286Z,33.60
2018-11-29T04:20:11.204Z,32.87
2018-11-29T04:22:39.376Z,25.00
2018-11-29T04:25:09.333Z,36.13
2018-11-29T04:27:37.500Z,32.93
2018-11-29T04:30:07.897Z,34.93
2018-11-29T04:32:36.064Z,31.63
2018-11-29T04:35:04.977Z,31.90
2018-11-29T04:37:33.140Z,32.47
2018-11-29T04:40:01.312Z,32.63
2018-11-29T04:42:29.465Z,31.13
2018-11-29T04:44:57.632Z,28.53
2018-11-29T04:47:25.842Z,31.90
2018-11-29T04:49:54.079Z,30.80
2018-11-29T04:52:22.277Z,28.67
2018-11-29T04:54:50.497Z,32.93
2018-11-29T04:57:18.631Z,32.60
2018-11-29T04:59:46.809Z,33.57
2018-11-29T05:02:14.979Z,29.60
2018-11-29T05:04:43.149Z,32.67
2018-11-29T05:07:11.618Z,35.17
2018-11-29T05:09:39.800Z,29.93
2018-11-29T05:12:07.961Z,27.87
2018-11-29T05:14:36.136Z,32.20
2018-11-29T05:17:04.292Z,36.10
2018-11-29T05:19:32.513Z,28.57
2018-11-29T05:22:00.690Z,29.77
2018-11-29T05:24:28.915Z,31.20
2018-11-29T05:26:57.105Z,27.87
2018-11-29T05:29:25.292Z,31.33
2018-11-29T05:31:53.493Z,30.93
2018-11-29T05:34:21.691Z,28.20
2018-11-29T05:36:50.145Z,26.03
2018-11-29T05:39:18.321Z,27.83
2018-11-29T05:41:46.486Z,28.37
2018-11-29T05:44:14.645Z,27.80
2018-11-29T05:46:42.813Z,29.27
2018-11-29T05:49:10.972Z,29.33
2018-11-29T05:51:39.153Z,26.53
2018-11-29T05:54:07.317Z,24.33
2018-11-29T05:56:35.493Z,30.73
2018-11-29T05:59:03.653Z,26.30
2018-11-29T06:01:35.553Z,24.20
2018-11-29T06:04:03.761Z,28.67
2018-11-29T06:06:31.949Z,25.90
2018-11-29T06:09:00.117Z,29.37
2018-11-29T06:11:28.286Z,28.77
2018-11-29T06:13:56.450Z,28.13
2018-11-29T06:16:24.905Z,28.43
2018-11-29T06:18:53.580Z,26.63
2018-11-29T06:21:21.752Z,25.50
2018-11-29T06:23:51.076Z,27.97
2018-11-29T06:26:19.968Z,27.77
2018-11-29T06:28:48.132Z,29.50
2018-11-29T06:31:16.302Z,25.70
2018-11-29T06:33:44.456Z,29.03
2018-11-29T06:36:12.628Z,25.27
2018-11-29T06:38:40.784Z,32.47
2018-11-29T06:41:08.984Z,27.10
2018-11-29T06:43:37.174Z,26.70
2018-11-29T06:46:05.801Z,26.83
2018-11-29T06:48:33.971Z,23.50
2018-11-29T06:51:02.153Z,25.77
2018-11-29T06:53:35.821Z,26.83
2018-11-29T06:56:03.993Z,25.20
2018-11-29T06:58:32.153Z,21.50
2018-11-29T07:01:00.333Z,26.07
2018-11-29T07:03:28.917Z,26.53
2018-11-29T07:05:56.667Z,24.33
2018-11-29T07:08:24.841Z,31.87
2018-11-29T07:10:53.101Z,30.80
2018-11-29T07:13:21.253Z,26.43
2018-11-29T07:15:49.417Z,27.70
2018-11-29T07:18:17.649Z,28.90
2018-11-29T07:20:57.305Z,24.70
2018-11-29T07:23:25.494Z,24.60
2018-11-29T07:25:53.649Z,23.13
2018-11-29T07:28:21.821Z,27.07
2018-11-29T07:30:49.997Z,23.23
2018-11-29T07:33:18.177Z,26.87
2018-11-29T07:35:46.349Z,26.47
2018-11-29T07:38:14.517Z,22.53
2018-11-29T07:40:42.681Z,27.10
2018-11-29T07:43:10.854Z,25.43
2018-11-29T07:45:39.064Z,24.23
2018-11-29T07:48:07.237Z,28.30
2018-11-29T07:50:35.397Z,25.77
2018-11-29T07:53:03.561Z,19.47
2018-11-29T07:55:31.724Z,25.70
2018-11-29T07:57:59.905Z,18.73
2018-11-29T08:00:28.102Z,20.17
2018-11-29T08:02:56.321Z,21.00
2018-11-29T08:05:24.525Z,15.57
2018-11-29T08:07:52.957Z,15.37
2018-11-29T08:10:21.127Z,16.90
2018-11-29T08:12:49.533Z,16.67
2018-11-29T08:15:18.840Z,17.10
2018-11-29T08:17:47.017Z,15.27
2018-11-29T08:20:17.332Z,17.60
2018-11-29T08:22:45.505Z,18.07
2018-11-29T08:25:13.701Z,19.47
2018-11-29T08:27:41.883Z,20.40
2018-11-29T08:30:11.357Z,17.90
2018-11-29T08:32:39.591Z,22.27
2018-11-29T08:35:09.008Z,22.50
2018-11-29T08:37:37.404Z,23.33
2018-11-29T08:40:08.669Z,25.77
2018-11-29T08:42:36.866Z,22.17
2018-11-29T08:45:06.378Z,22.47
2018-11-29T08:47:34.536Z,21.90
2018-11-29T08:50:02.717Z,29.77
2018-11-29T08:52:30.893Z,26.53
2018-11-29T08:54:59.061Z,25.50
2018-11-29T08:57:27.224Z,25.57
2018-11-29T08:59:55.417Z,24.53
2018-11-29T09:02:23.576Z,25.30
2018-11-29T09:04:51.751Z,20.57
2018-11-29T09:07:19.936Z,21.57
2018-11-29T09:09:48.103Z,21.17
2018-11-29T09:12:16.260Z,22.03
2018-11-29T09:14:44.455Z,17.33
2018-11-29T09:17:12.601Z,21.33
2018-11-29T09:19:40.785Z,20.70
2018-11-29T09:22:08.984Z,18.33
2018-11-29T09:24:37.256Z,19.07
2018-11-29T09:27:05.690Z,21.87
2018-11-29T09:29:33.861Z,20.83
2018-11-29T09:32:02.312Z,17.50
2018-11-29T09:34:30.480Z,22.07
2018-11-29T09:36:58.653Z,17.83
2018-11-29T09:39:27.225Z,18.60
2018-11-29T09:41:55.390Z,17.13
2018-11-29T09:44:23.557Z,24.23
2018-11-29T09:46:51.720Z,22.43
2018-11-29T09:49:20.179Z,22.03
2018-11-29T09:51:48.345Z,19.17
2018-11-29T09:54:16.515Z,20.20
2018-11-29T09:56:44.669Z,16.70
2018-11-29T09:59:12.841Z,17.43
2018-11-29T10:01:41.066Z,19.27
2018-11-29T10:04:09.271Z,19.77
2018-11-29T10:06:37.448Z,16.57
2018-11-29T10:09:08.709Z,19.67
2018-11-29T10:11:36.881Z,17.73
2018-11-29T10:14:05.172Z,18.67
2018-11-29T10:16:33.744Z,16.83
2018-11-29T10:19:01.516Z,16.33
2018-11-29T10:21:29.677Z,20.43
2018-11-29T10:23:58.386Z,18.47
2018-11-29T10:26:26.557Z,20.80
2018-11-29T10:28:54.722Z,16.87
2018-11-29T10:31:22.893Z,18.93
2018-11-29T10:33:51.049Z,17.37
2018-11-29T10:36:19.222Z,15.47
2018-11-29T10:38:47.412Z,18.07
2018-11-29T10:41:15.601Z,17.60
2018-11-29T10:43:43.796Z,18.10
2018-11-29T10:46:11.994Z,17.50
2018-11-29T10:48:40.169Z,16.50
2018-11-29T10:51:08.345Z,20.33
2018-11-29T10:53:38.053Z,19.60
2018-11-29T10:56:04.717Z,23.83
2018-11-29T10:58:32.885Z,20.77
2018-11-29T11:01:06.367Z,20.17
2018-11-29T11:03:34.537Z,21.40
2018-11-29T11:06:02.701Z,23.63
2018-11-29T11:08:30.884Z,26.20
2018-11-29T11:11:03.304Z,31.13
2018-11-29T11:13:31.489Z,26.47
2018-11-29T11:15:59.665Z,29.47
2018-11-29T11:18:27.833Z,32.93
2018-11-29T11:20:56.049Z,27.77
2018-11-29T11:23:24.220Z,26.23
2018-11-29T11:25:52.433Z,22.57
2018-11-29T11:28:20.605Z,27.63
2018-11-29T11:30:48.799Z,24.03
2018-11-29T11:33:17.066Z,27.30
2018-11-29T11:35:45.274Z,30.00
2018-11-29T11:38:13.439Z,22.37
2018-11-29T11:40:41.617Z,26.90
2018-11-29T11:43:09.778Z,28.03
2018-11-29T11:45:37.950Z,25.17
2018-11-29T11:48:06.877Z,27.57
2018-11-29T11:50:35.460Z,24.63
2018-11-29T11:53:03.630Z,27.07
2018-11-29T11:55:31.809Z,25.77
2018-11-29T11:57:59.978Z,24.37
2018-11-29T12:00:29.341Z,25.47
2018-11-29T12:03:00.824Z,25.43
2018-11-29T12:05:28.998Z,25.27
2018-11-29T12:07:57.173Z,24.20
2018-11-29T12:10:25.341Z,26.07
2018-11-29T12:12:53.525Z,28.87
2018-11-29T12:15:21.684Z,25.37
2018-11-29T12:17:49.887Z,29.70
2018-11-29T12:20:18.986Z,32.53
2018-11-29T12:22:47.284Z,23.37
2018-11-29T12:25:19.510Z,28.07
2018-11-29T12:27:47.697Z,24.87
2018-11-29T12:30:17.326Z,22.93
2018-11-29T12:32:45.534Z,20.97
2018-11-29T12:35:13.937Z,25.20
2018-11-29T12:37:42.100Z,23.53
2018-11-29T12:40:13.255Z,26.33
2018-11-29T12:42:41.437Z,29.60
2018-11-29T12:45:10.721Z,24.63
2018-11-29T12:47:39.207Z,28.20
2018-11-29T12:50:15.405Z,24.80
2018-11-29T12:52:43.634Z,21.63
2018-11-29T12:55:12.782Z,26.87
2018-11-29T12:57:42.179Z,28.20
2018-11-29T13:00:13.389Z,26.50
2018-11-29T13:02:47.595Z,29.00
2018-11-29T13:05:15.766Z,30.40
2018-11-29T13:07:43.956Z,32.53
2018-11-29T13:10:13.134Z,26.87
2018-11-29T13:12:41.336Z,26.23
2018-11-29T13:15:12.248Z,26.43
2018-11-29T13:17:40.256Z,30.70
2018-11-29T13:20:10.969Z,22.40
2018-11-29T13:22:39.159Z,27.93
2018-11-29T13:25:09.437Z,25.67
2018-11-29T13:27:37.601Z,29.97
2018-11-29T13:30:10.206Z,26.20
2018-11-29T13:32:38.417Z,21.87
2018-11-29T13:35:13.763Z,24.37
2018-11-29T13:37:41.908Z,30.07
2018-11-29T13:40:11.076Z,31.40
2018-11-29T13:42:39.282Z,27.53
2018-11-29T13:45:11.009Z,28.53
2018-11-29T13:47:39.773Z,30.63
2018-11-29T13:50:12.544Z,27.57
2018-11-29T13:52:40.693Z,30.83
2018-11-29T13:55:09.929Z,41.40
2018-11-29T13:57:38.165Z,33.20
2018-11-29T14:00:10.893Z,32.30
2018-11-29T14:02:39.292Z,32.03
2018-11-29T14:05:08.353Z,28.57
2018-11-29T14:07:36.999Z,30.87
2018-11-29T14:10:06.586Z,30.93
2018-11-29T14:12:34.793Z,28.23
2018-11-29T14:15:02.962Z,27.17
2018-11-29T14:17:31.133Z,30.20
2018-11-29T14:19:59.289Z,26.53
2018-11-29T14:22:27.453Z,29.57
2018-11-29T14:24:55.608Z,28.37
2018-11-29T14:27:23.773Z,30.73
2018-11-29T14:29:51.928Z,34.30
2018-11-29T14:32:21.323Z,31.80
2018-11-29T14:34:51.709Z,32.50
2018-11-29T14:37:16.620Z,38.80
2018-11-29T14:39:44.764Z,32.60
2018-11-29T14:42:13.377Z,32.77
2018-11-29T14:44:41.582Z,33.07
2018-11-29T14:47:09.753Z,30.73
2018-11-29T14:49:37.912Z,29.67
2018-11-29T14:52:08.088Z,33.70
2018-11-29T14:54:34.872Z,33.17
2018-11-29T14:57:03.067Z,29.23
2018-11-29T14:59:31.234Z,32.50
2018-11-29T15:01:59.435Z,29.87
2018-11-29T15:04:27.634Z,31.57
2018-11-29T15:06:55.829Z,35.03
2018-11-29T15:09:24.000Z,31.97
2018-11-29T15:11:52.152Z,28.10
2018-11-29T15:14:20.311Z,31.77
2018-11-29T15:16:48.465Z,29.13
2018-11-29T15:19:16.628Z,37.27
2018-11-29T15:21:44.785Z,35.20
2018-11-29T15:24:12.956Z,36.47
2018-11-29T15:26:41.109Z,35.03
2018-11-29T15:29:09.269Z,34.37
2018-11-29T15:31:37.438Z,32.37
2018-11-29T15:34:05.632Z,39.87
2018-11-29T15:36:33.776Z,32.23
2018-11-29T15:39:01.940Z,36.20
2018-11-29T15:41:30.093Z,37.10
2018-11-29T15:43:58.257Z,36.30
2018-11-29T15:46:26.409Z,29.87
2018-11-29T15:48:54.610Z,34.20
2018-11-29T15:51:22.806Z,37.00
2018-11-29T15:53:50.981Z,44.57
2018-11-29T15:56:19.153Z,32.87
2018-11-29T15:58:47.312Z,33.17
2018-11-29T16:01:15.464Z,35.80
2018-11-29T16:03:43.662Z,34.40
2018-11-29T16:06:11.820Z,33.97
2018-11-29T16:08:40.000Z,36.20
2018-11-29T16:11:08.160Z,34.93
2018-11-29T16:13:36.321Z,37.77
2018-11-29T16:16:04.477Z,39.20
2018-11-29T16:18:32.636Z,32.40
2018-11-29T16:21:00.785Z,33.77
2018-11-29T16:23:28.941Z,37.53
2018-11-29T16:25:57.104Z,41.73
2018-11-29T16:28:25.269Z,38.87
2018-11-29T16:30:55.250Z,37.00
2018-11-29T16:33:26.842Z,42.83
2018-11-29T16:35:55.047Z,38.60
2018-11-29T16:38:23.234Z,45.17
2018-11-29T16:40:51.449Z,42.50
2018-11-29T16:43:19.641Z,34.60
2018-11-29T16:45:47.804Z,37.47
2018-11-29T16:48:15.973Z,41.00
2018-11-29T16:50:44.145Z,37.07
2018-11-29T16:53:12.312Z,33.43
2018-11-29T16:55:40.478Z,33.90
2018-11-29T16:58:10.289Z,35.60
2018-11-29T17:00:38.456Z,39.23
2018-11-29T17:03:06.638Z,38.50
2018-11-29T17:05:34.788Z,34.73
2018-11-29T17:08:03.072Z,39.77
2018-11-29T17:10:31.229Z,35.80
2018-11-29T17:13:00.960Z,33.63
2018-11-29T17:15:29.137Z,37.27
2018-11-29T17:17:57.381Z,40.30
2018-11-29T17:20:25.590Z,44.03
2018-11-29T17:22:53.770Z,38.70
2018-11-29T17:25:21.929Z,44.87
2018-11-29T17:27:50.088Z,37.90
2018-11-29T17:30:20.212Z,39.67
2018-11-29T17:32:49.192Z,42.23
2018-11-29T17:35:17.389Z,38.23
2018-11-29T17:37:45.579Z,38.03
2018-11-29T17:40:23.108Z,39.07
2018-11-29T17:42:52.301Z,36.83
2018-11-29T17:45:23.312Z,32.80
2018-11-29T17:47:52.982Z,42.60
2018-11-29T17:50:22.516Z,43.77
2018-11-29T17:52:50.692Z,36.27
2018-11-29T17:55:18.895Z,38.73
2018-11-29T17:57:47.056Z,38.80
2018-11-29T18:00:20.483Z,39.63
2018-11-29T18:02:48.716Z,39.67
2018-11-29T18:05:16.888Z,43.17
2018-11-29T18:07:45.120Z,43.10
2018-11-29T18:10:16.310Z,43.17
2018-11-29T18:12:45.081Z,35.27
2018-11-29T18:15:15.067Z,39.77
2018-11-29T18:17:43.249Z,43.00
2018-11-29T18:20:12.241Z,37.90
2018-11-29T18:22:40.614Z,40.20
2018-11-29T18:25:11.672Z,38.97
2018-11-29T18:27:41.303Z,54.83
2018-11-29T18:30:15.231Z,44.43
2018-11-29T18:32:44.616Z,43.93
2018-11-29T18:35:14.712Z,41.53
2018-11-29T18:37:43.841Z,40.80
2018-11-29T18:40:21.123Z,40.47
2018-11-29T18:42:53.913Z,39.33
2018-11-29T18:45:22.684Z,34.73
2018-11-29T18:47:52.480Z,38.33
2018-11-29T18:50:25.536Z,39.47
2018-11-29T18:52:54.695Z,40.03
2018-11-29T18:55:24.923Z,38.43
2018-11-29T18:57:54.733Z,40.23
2018-11-29T19:00:30.061Z,36.03
2018-11-29T19:02:59.672Z,38.33
2018-11-29T19:05:27.921Z,38.67
2018-11-29T19:07:56.369Z,56.20
2018-11-29T19:10:25.047Z,57.97
2018-11-29T19:13:04.305Z,43.17
2018-11-29T19:15:32.685Z,39.10
2018-11-29T19:18:00.906Z,35.03
2018-11-29T19:20:29.196Z,36.47
2018-11-29T19:22:57.366Z,35.53
2018-11-29T19:25:26.772Z,36.13
2018-11-29T19:27:55.706Z,37.90
2018-11-29T19:30:26.767Z,41.03
2018-11-29T19:32:59.656Z,35.73
2018-11-29T19:35:28.625Z,41.20
2018-11-29T19:37:57.504Z,35.00
2018-11-29T19:40:33.463Z,33.50
2018-11-29T19:43:02.380Z,37.07
2018-11-29T19:45:31.776Z,39.90
2018-11-29T19:47:59.997Z,51.10
2018-11-29T19:50:29.573Z,35.97
2018-11-29T19:52:59.393Z,39.53
2018-11-29T19:55:30.054Z,40.53
2018-11-29T19:57:58.225Z,40.33
2018-11-29T20:00:26.416Z,38.17
2018-11-29T20:02:55.636Z,40.13
2018-11-29T20:05:23.913Z,43.63
2018-11-29T20:07:52.091Z,41.93
2018-11-29T20:10:20.309Z,44.23
2018-11-29T20:12:54.125Z,50.77
2018-11-29T20:15:22.297Z,49.13
2018-11-29T20:17:50.482Z,47.17
2018-11-29T20:20:18.689Z,44.57
2018-11-29T20:22:46.882Z,49.90
2018-11-29T20:25:17.222Z,38.17
2018-11-29T20:27:45.465Z,33.90
2018-11-29T20:30:16.832Z,42.43
2018-11-29T20:32:45.301Z,38.43
2018-11-29T20:35:13.667Z,39.60
2018-11-29T20:37:41.921Z,42.27
2018-11-29T20:40:14.745Z,37.40
2018-11-29T20:42:43.208Z,34.43
2018-11-29T20:45:16.806Z,41.03
2018-11-29T20:47:44.964Z,43.97
2018-11-29T20:50:14.920Z,39.03
2018-11-29T20:52:43.397Z,42.97
2018-11-29T20:55:15.261Z,40.17
2018-11-29T20:57:43.516Z,39.47
2018-11-29T21:00:13.274Z,41.80
2018-11-29T21:02:41.825Z,40.40
2018-11-29T21:05:12.361Z,41.73
2018-11-29T21:07:41.125Z,40.53
2018-11-29T21:10:13.928Z,45.73
2018-11-29T21:12:42.258Z,37.53
2018-11-29T21:15:10.597Z,41.37
2018-11-29T21:17:38.801Z,41.37
2018-11-29T21:20:10.589Z,40.43
2018-11-29T21:22:38.902Z,38.17
2018-11-29T21:25:10.204Z,43.20
2018-11-29T21:27:38.781Z,41.67
2018-11-29T21:30:12.231Z,42.90
2018-11-29T21:32:40.508Z,43.97
2018-11-29T21:35:09.873Z,37.70
2018-11-29T21:37:38.041Z,41.27
2018-11-29T21:40:09.604Z,42.40
2018-11-29T21:42:37.765Z,45.77
2018-11-29T21:45:06.026Z,39.90
2018-11-29T21:47:34.232Z,40.47
2018-11-29T21:50:02.501Z,40.63
2018-11-29T21:52:30.677Z,36.33
2018-11-29T21:54:58.891Z,38.80
2018-11-29T21:57:27.045Z,42.27
2018-11-29T21:59:55.220Z,40.73
2018-11-29T22:02:23.528Z,45.00
2018-11-29T22:04:51.737Z,41.97
2018-11-29T22:07:19.937Z,39.37
2018-11-29T22:09:48.178Z,46.67
2018-11-29T22:12:18.080Z,46.70
2018-11-29T22:14:46.347Z,40.47
2018-11-29T22:17:14.529Z,43.77
2018-11-29T22:19:42.698Z,45.87
2018-11-29T22:22:10.873Z,46.17
2018-11-29T22:24:39.885Z,39.37
2018-11-29T22:27:08.065Z,43.83
2018-11-29T22:29:36.228Z,41.60
2018-11-29T22:32:04.444Z,47.97
2018-11-29T22:34:32.666Z,46.17
2018-11-29T22:37:00.966Z,42.03
2018-11-29T22:39:29.094Z,39.47
2018-11-29T22:41:57.299Z,40.13
2018-11-29T22:44:25.436Z,44.20
2018-11-29T22:46:53.633Z,45.27
2018-11-29T22:49:21.841Z,43.70
2018-11-29T22:51:50.013Z,42.40
2018-11-29T22:54:18.189Z,43.23
2018-11-29T22:56:46.357Z,38.33
2018-11-29T22:59:14.521Z,43.93
2018-11-29T23:01:42.733Z,44.70
2018-11-29T23:04:10.945Z,45.80
2018-11-29T23:06:39.145Z,41.50
2018-11-29T23:09:09.086Z,40.33
2018-11-29T23:11:37.629Z,40.37
2018-11-29T23:14:06.430Z,39.70
2018-11-29T23:16:34.842Z,38.03
2018-11-29T23:19:03.065Z,37.03
2018-11-29T23:21:31.278Z,35.60
2018-11-29T23:23:59.468Z,43.30
2018-11-29T23:26:27.666Z,45.27
2018-11-29T23:28:55.932Z,34.83
2018-11-29T23:31:24.132Z,39.67
2018-11-29T23:33:52.324Z,42.33
2018-11-29T23:36:20.517Z,38.27
2018-11-29T23:38:48.717Z,42.57
2018-11-29T23:41:16.914Z,42.57
2018-11-29T23:43:45.108Z,44.93
2018-11-29T23:46:13.305Z,37.83
2018-11-29T23:48:41.504Z,33.97
2018-11-29T23:51:09.713Z,40.13
2018-11-29T23:53:37.947Z,34.23
2018-11-29T23:56:06.183Z,35.07
2018-11-29T23:58:34.394Z,36.73
